This demonstration page uses our WeatherBlox Daily Observations layout. Learn more.

Hourly Observations for August 28, 2020

Temp ( °F °C ) Dew Point ( °F °C ) Humidity (%) Winds ( mph kmh ) Pressure ( in mb ) Visibility ( mi km ) Precip ( " mm )
12:51 am 00:51 Clear 84 28.9 54 12.2 36 36 NNW 8 13 29.65 1004 10 16.0934 0 0
1:51 am 01:51 Clear 85 29.4 53 11.7 33 33 NNW 12 19 29.64 1004 10 16.0934 0 0
2:51 am 02:51 Clear 84 28.9 52 11.1 33 33 NNW 6 9 29.64 1004 10 16.0934 0 0
3:51 am 03:51 Clear 78 25.6 54 12.2 43 43 NNW 3 6 29.65 1004 10 16.0934 0 0
4:51 am 04:51 Clear 77 25 53 11.7 43 43 Calm 29.67 1005 10 16.0934 0 0
5:51 am 05:51 Clear 73 22.8 51 10.6 46 46 E 5 7 29.7 1006 10 16.0934 0 0
6:51 am 06:51 Sunny 80 26.7 52 11.1 38 38 Calm 29.72 1006 10 16.0934 0 0
7:51 am 07:51 Sunny 83 28.3 54 12.2 37 37 W 5 7 29.73 1007 10 16.0934 0 0
8:51 am 08:51 Sunny 87 30.6 54 12.2 32 32 Calm 29.74 1007 10 16.0934 0 0
9:51 am 09:51 Sunny 92 33.3 53 11.7 27 27 SSW 3 6 29.73 1007 10 16.0934 0 0
10:51 am 10:51 Sunny 97 36.1 52 11.1 22 22 Calm 29.72 1007 10 16.0934 0 0
11:51 am 11:51 Sunny 100 37.8 52 11.1 20 20 W 7 11 29.69 1005 10 16.0934 0 0
12:51 pm 12:51 Sunny 105 40.6 48 8.9 15 15 W 14 22 29.65 1004 10 16.0934 0 0
1:51 pm 13:51 Sunny 102 38.9 45 7.2 14 14 W 17 28 29.64 1004 10 16.0934 0 0
2:51 pm 14:51 Sunny 103 39.4 47 8.3 15 15 W 17 28 29.62 1003 10 16.0934 0 0
3:51 pm 15:51 Sunny 105 40.6 42 5.6 12 12 W 6 9 29.6 1002 10 16.0934 0 0
4:51 pm 16:51 Sunny 105 40.6 44 6.7 13 13 W 14 22 29.6 1002 10 16.0934 0 0
5:51 pm 17:51 Sunny 101 38.3 46 7.8 15 15 WSW 8 13 29.62 1003 10 16.0934 0 0
6:51 pm 18:51 Clear 95 35 50 10 22 22 W 21 33 29.65 1004 10 16.0934 0 0
7:51 pm 19:51 Clear 93 33.9 51 10.6 24 24 NW 18 30 29.67 1005 10 16.0934 0 0
8:51 pm 20:51 Clear 92 33.3 51 10.6 25 25 NW 15 24 29.69 1005 10 16.0934 0 0
9:51 pm 21:51 Clear 93 33.9 49 9.4 22 22 WNW 13 20 29.7 1006 10 16.0934 0 0
10:51 pm 22:51 Clear 90 32.2 50 10 25 25 WNW 12 19 29.7 1006 10 16.0934 0 0
11:51 pm 23:51 Clear 87 30.6 50 10 28 28 WNW 9 15 29.71 1006 10 16.0934 0 0

Powered by AerisWeather